KFYV

Drake Field Airport

Fayetteville, Arkansas, USA
METAR KFYV 261253Z 00000KT 10SM CLR 19/19 A2990 RMK AO2 SLP113 T01890189
Observed Flight Rules
May-26 @ 12:53 UTC (47 minutes ago) Visual Flight Rules
Visibility Clouds
10 miles
  • Clear skies
Temperatures Readings
Current 19°C / 66°F
Dewpoint 19°C / 66°F
Humidity 100%
Altimeter 29.9" Hg
Pressure 1011.3 hPa
Elevation 379
METAR KFYV 261253Z 00000KT 10SM CLR 19/19 A2990 RMK AO2 SLP113 T01890189
Observed Flight Rules
May-26 @ 12:53 UTC
(47 minutes ago)
VFR
Clouds
  • Clear skies
Temperature Dewpoint
19°C / 66°F 19°C / 66°F
Humidity Altimeter Pressure
100% 29.9" Hg 1011.3 hPa